createdAt,value
2019-03-18T00:02:08.860Z,7.53
2019-03-18T00:04:37.069Z,13.70
2019-03-18T00:07:05.293Z,10.48
2019-03-18T00:09:33.516Z,11.53
2019-03-18T00:12:01.771Z,6.90
2019-03-18T00:14:29.985Z,11.40
2019-03-18T00:16:58.228Z,9.90
2019-03-18T00:19:26.425Z,8.75
2019-03-18T00:21:54.633Z,11.73
2019-03-18T00:24:22.865Z,12.45
2019-03-18T00:26:51.146Z,11.12
2019-03-18T00:29:20.309Z,17.67
2019-03-18T00:31:48.523Z,11.50
2019-03-18T00:34:16.732Z,9.35
2019-03-18T00:36:44.969Z,12.78
2019-03-18T00:39:13.183Z,10.82
2019-03-18T00:41:41.388Z,10.48
2019-03-18T00:44:09.597Z,10.58
2019-03-18T00:46:37.809Z,10.53
2019-03-18T00:49:06.016Z,8.28
2019-03-18T00:51:34.265Z,9.38
2019-03-18T00:54:02.570Z,10.72
2019-03-18T00:56:30.783Z,11.43
2019-03-18T00:58:58.992Z,7.40
2019-03-18T01:01:27.237Z,9.33
2019-03-18T01:03:55.445Z,10.48
2019-03-18T01:06:23.666Z,9.73
2019-03-18T01:08:51.882Z,10.48
2019-03-18T01:11:20.083Z,9.18
2019-03-18T01:13:48.299Z,9.53
2019-03-18T01:16:16.502Z,9.50
2019-03-18T01:18:44.721Z,9.75
2019-03-18T01:21:12.933Z,9.53
2019-03-18T01:23:41.144Z,9.18
2019-03-18T01:26:09.386Z,7.33
2019-03-18T01:28:37.840Z,7.28
2019-03-18T01:31:06.057Z,7.97
2019-03-18T01:33:34.271Z,7.53
2019-03-18T01:36:02.502Z,8.08
2019-03-18T01:38:30.800Z,11.57
2019-03-18T01:40:59.010Z,7.33
2019-03-18T01:43:27.216Z,5.03
2019-03-18T01:45:55.420Z,7.58
2019-03-18T01:48:23.627Z,9.53
2019-03-18T01:50:51.834Z,9.23
2019-03-18T01:53:20.115Z,4.83
2019-03-18T01:55:48.326Z,6.92
2019-03-18T01:58:17.423Z,9.70
2019-03-18T02:00:45.627Z,7.08
2019-03-18T02:03:13.856Z,8.80
2019-03-18T02:05:42.061Z,4.53
2019-03-18T02:08:10.310Z,7.75
2019-03-18T02:10:38.524Z,8.38
2019-03-18T02:13:06.731Z,13.25
2019-03-18T02:15:34.935Z,8.30
2019-03-18T02:18:03.142Z,6.60
2019-03-18T02:20:31.365Z,9.35
2019-03-18T02:22:59.569Z,7.50
2019-03-18T02:25:27.778Z,8.55
2019-03-18T02:27:55.989Z,10.38
2019-03-18T02:30:24.198Z,9.08
2019-03-18T02:32:52.417Z,13.00
2019-03-18T02:35:20.619Z,12.00
2019-03-18T02:37:48.833Z,10.08
2019-03-18T02:40:17.053Z,8.78
2019-03-18T02:42:45.266Z,14.68
2019-03-18T02:45:13.566Z,8.68
2019-03-18T02:47:41.787Z,15.40
2019-03-18T02:50:10.237Z,9.50
2019-03-18T02:52:38.453Z,12.37
2019-03-18T02:55:07.809Z,8.90
2019-03-18T02:57:36.050Z,9.93
2019-03-18T03:00:32.069Z,9.55
2019-03-18T03:03:00.303Z,13.58
2019-03-18T03:05:28.501Z,8.77
2019-03-18T03:07:56.711Z,6.83
2019-03-18T03:10:24.925Z,7.47
2019-03-18T03:12:53.131Z,11.97
2019-03-18T03:15:21.350Z,9.60
2019-03-18T03:17:50.617Z,11.76
2019-03-18T03:20:18.824Z,13.98
2019-03-18T03:22:47.094Z,8.45
2019-03-18T03:25:15.273Z,11.53
2019-03-18T03:27:43.487Z,9.68
2019-03-18T03:30:14.427Z,9.83
2019-03-18T03:32:42.752Z,10.90
2019-03-18T03:35:10.975Z,9.70
2019-03-18T03:37:39.164Z,12.78
2019-03-18T03:40:09.664Z,5.50
2019-03-18T03:42:37.944Z,9.28
2019-03-18T03:45:07.837Z,10.95
2019-03-18T03:47:36.059Z,9.57
2019-03-18T03:50:04.931Z,11.00
2019-03-18T03:52:33.145Z,10.90
2019-03-18T03:55:01.375Z,12.53
2019-03-18T03:57:29.593Z,14.63
2019-03-18T03:59:57.798Z,16.05
2019-03-18T04:02:26.015Z,13.60
2019-03-18T04:04:54.220Z,14.10
2019-03-18T04:07:22.441Z,13.65
2019-03-18T04:09:50.913Z,12.07
2019-03-18T04:12:19.124Z,9.78
2019-03-18T04:14:47.372Z,13.22
2019-03-18T04:17:15.586Z,12.65
2019-03-18T04:19:43.820Z,12.00
2019-03-18T04:22:12.051Z,17.57
2019-03-18T04:24:40.256Z,14.07
2019-03-18T04:27:08.482Z,13.93
2019-03-18T04:29:36.693Z,18.37
2019-03-18T04:32:04.922Z,17.65
2019-03-18T04:34:33.136Z,17.70
2019-03-18T04:37:01.381Z,16.50
2019-03-18T04:39:29.602Z,14.25
2019-03-18T04:41:57.821Z,19.50
2019-03-18T04:44:26.044Z,17.06
2019-03-18T04:46:54.277Z,13.60
2019-03-18T04:49:22.492Z,14.00
2019-03-18T04:51:51.246Z,18.70
2019-03-18T04:54:19.457Z,25.70
2019-03-18T04:56:47.692Z,17.57
2019-03-18T04:59:15.904Z,20.57
2019-03-18T05:01:44.116Z,21.10
2019-03-18T05:04:12.364Z,23.50
2019-03-18T05:06:40.579Z,15.18
2019-03-18T05:09:08.847Z,15.58
2019-03-18T05:11:37.094Z,18.20
2019-03-18T05:14:05.305Z,20.30
2019-03-18T05:16:33.521Z,17.50
2019-03-18T05:19:01.736Z,17.10
2019-03-18T05:21:29.957Z,13.98
2019-03-18T05:23:58.180Z,16.27
2019-03-18T05:26:26.399Z,21.30
2019-03-18T05:28:54.630Z,16.67
2019-03-18T05:31:22.836Z,20.23
2019-03-18T05:33:51.489Z,22.75
2019-03-18T05:36:19.769Z,22.60
2019-03-18T05:38:47.985Z,21.95
2019-03-18T05:41:16.248Z,24.35
2019-03-18T05:43:44.437Z,22.90
2019-03-18T05:46:12.690Z,21.87
2019-03-18T05:48:40.934Z,27.98
2019-03-18T05:51:09.156Z,27.73
2019-03-18T05:53:37.364Z,29.35
2019-03-18T05:56:05.577Z,27.43
2019-03-18T05:58:33.815Z,34.18
2019-03-18T06:01:02.058Z,25.70
2019-03-18T06:03:30.287Z,22.58
2019-03-18T06:05:58.503Z,27.25
2019-03-18T06:08:26.748Z,29.30
2019-03-18T06:10:54.978Z,24.67
2019-03-18T06:13:23.389Z,38.23
2019-03-18T06:15:51.737Z,25.20
2019-03-18T06:18:19.966Z,23.77
2019-03-18T06:20:48.176Z,33.85
2019-03-18T06:23:16.395Z,28.50
2019-03-18T06:25:44.631Z,29.10
2019-03-18T06:28:12.852Z,30.80
2019-03-18T06:30:41.078Z,32.63
2019-03-18T06:33:09.295Z,30.45
2019-03-18T06:35:37.515Z,24.80
2019-03-18T06:38:05.725Z,24.00
2019-03-18T06:40:33.949Z,30.43
2019-03-18T06:43:02.166Z,26.15
2019-03-18T06:45:30.383Z,26.75
2019-03-18T06:48:04.827Z,32.33
2019-03-18T06:50:28.571Z,30.15
2019-03-18T06:52:56.796Z,31.02
2019-03-18T06:55:25.008Z,32.40
2019-03-18T06:57:53.227Z,34.35
2019-03-18T07:00:22.084Z,30.35
2019-03-18T07:02:50.312Z,29.63
2019-03-18T07:05:18.515Z,33.80
2019-03-18T07:07:46.732Z,30.37
2019-03-18T07:10:14.953Z,27.60
2019-03-18T07:12:43.171Z,32.48
2019-03-18T07:15:11.479Z,27.98
2019-03-18T07:17:39.686Z,32.20
2019-03-18T07:20:13.767Z,31.70
2019-03-18T07:22:42.085Z,27.42
2019-03-18T07:25:10.320Z,27.77
2019-03-18T07:27:38.552Z,28.32
2019-03-18T07:30:12.193Z,35.40
2019-03-18T07:32:40.417Z,28.83
2019-03-18T07:35:08.624Z,28.15
2019-03-18T07:37:36.960Z,34.75
2019-03-18T07:40:16.195Z,36.75
2019-03-18T07:42:44.403Z,33.88
2019-03-18T07:45:15.890Z,31.60
2019-03-18T07:47:44.124Z,30.20
2019-03-18T07:50:15.599Z,30.37
2019-03-18T07:52:43.808Z,26.60
2019-03-18T07:55:12.030Z,40.55
2019-03-18T07:57:40.302Z,29.95
2019-03-18T08:00:15.503Z,30.87
2019-03-18T08:02:43.707Z,34.20
2019-03-18T08:05:11.924Z,35.35
2019-03-18T08:07:40.135Z,27.07
2019-03-18T08:10:10.381Z,29.75
2019-03-18T08:12:38.957Z,29.67
2019-03-18T08:15:09.290Z,25.90
2019-03-18T08:17:37.499Z,24.95
2019-03-18T08:20:10.476Z,23.25
2019-03-18T08:22:38.733Z,29.30
2019-03-18T08:25:08.507Z,25.02
2019-03-18T08:27:36.719Z,31.23
2019-03-18T08:30:13.265Z,26.95
2019-03-18T08:32:41.523Z,29.15
2019-03-18T08:35:09.736Z,24.47
2019-03-18T08:37:37.977Z,32.73
2019-03-18T08:40:10.676Z,22.52
2019-03-18T08:42:38.889Z,22.57
2019-03-18T08:45:09.911Z,28.80
2019-03-18T08:47:38.126Z,22.02
2019-03-18T08:50:11.911Z,20.57
2019-03-18T08:52:38.858Z,15.90
2019-03-18T08:55:08.917Z,26.52
2019-03-18T08:57:37.130Z,20.57
2019-03-18T09:00:08.637Z,25.68
2019-03-18T09:02:36.867Z,20.35
2019-03-18T09:05:06.295Z,21.77
2019-03-18T09:07:34.547Z,19.55
2019-03-18T09:10:02.828Z,16.57
2019-03-18T09:12:31.041Z,23.00
2019-03-18T09:14:59.291Z,16.37
2019-03-18T09:17:27.509Z,22.42
2019-03-18T09:19:55.729Z,21.97
2019-03-18T09:22:24.068Z,18.67
2019-03-18T09:24:53.208Z,24.77
2019-03-18T09:27:21.427Z,17.70
2019-03-18T09:29:49.652Z,23.52
2019-03-18T09:32:17.899Z,15.10
2019-03-18T09:34:46.105Z,16.55
2019-03-18T09:37:14.335Z,13.32
2019-03-18T09:39:42.548Z,12.05
2019-03-18T09:42:10.778Z,9.95
2019-03-18T09:44:38.994Z,10.85
2019-03-18T09:47:07.203Z,12.67
2019-03-18T09:49:35.441Z,14.20
2019-03-18T09:52:03.659Z,14.50
2019-03-18T09:54:31.875Z,20.52
2019-03-18T09:57:00.097Z,20.50
2019-03-18T09:59:28.335Z,23.50
2019-03-18T10:01:56.550Z,22.85
2019-03-18T10:04:24.789Z,20.95
2019-03-18T10:06:53.958Z,28.92
2019-03-18T10:09:22.189Z,21.17
2019-03-18T10:11:50.405Z,27.17
2019-03-18T10:14:19.827Z,30.70
2019-03-18T10:16:48.130Z,30.25
2019-03-18T10:19:16.369Z,31.85
2019-03-18T10:21:44.570Z,29.40
2019-03-18T10:24:12.786Z,22.42
2019-03-18T10:26:41.052Z,29.02
2019-03-18T10:29:09.277Z,25.15
2019-03-18T10:31:37.478Z,24.07
2019-03-18T10:34:05.693Z,29.43
2019-03-18T10:36:33.913Z,25.48
2019-03-18T10:39:02.155Z,30.35
2019-03-18T10:41:30.371Z,27.67
2019-03-18T10:43:58.600Z,31.12
2019-03-18T10:46:26.820Z,23.47
2019-03-18T10:48:55.029Z,14.47
2019-03-18T10:51:23.916Z,10.65
2019-03-18T10:53:52.123Z,9.85
2019-03-18T10:56:20.378Z,18.60
2019-03-18T10:58:48.624Z,19.55
2019-03-18T11:01:16.877Z,23.47
2019-03-18T11:03:45.088Z,26.45
2019-03-18T11:06:13.303Z,23.50
2019-03-18T11:08:41.517Z,27.17
2019-03-18T11:11:09.740Z,26.33
2019-03-18T11:13:37.960Z,32.53
2019-03-18T11:16:06.192Z,32.63
2019-03-18T11:18:34.416Z,28.20
2019-03-18T11:21:02.634Z,21.23
2019-03-18T11:23:30.854Z,28.30
2019-03-18T11:25:59.064Z,25.07
2019-03-18T11:28:27.293Z,9.28
2019-03-18T11:30:55.509Z,5.42
2019-03-18T11:33:24.079Z,9.88
2019-03-18T11:35:52.286Z,8.25
2019-03-18T11:38:20.499Z,10.88
2019-03-18T11:40:48.718Z,11.20
2019-03-18T11:43:16.943Z,10.68
2019-03-18T11:45:45.154Z,11.37
2019-03-18T11:48:13.360Z,9.85
2019-03-18T11:50:41.657Z,9.08
2019-03-18T11:53:14.487Z,8.85
2019-03-18T11:55:39.806Z,12.78
2019-03-18T11:58:08.038Z,16.75
2019-03-18T12:00:36.244Z,15.88
2019-03-18T12:03:04.466Z,17.00
2019-03-18T12:05:32.673Z,19.90
2019-03-18T12:08:00.891Z,25.80
2019-03-18T12:10:29.096Z,27.40
2019-03-18T12:12:57.309Z,30.10
2019-03-18T12:15:26.491Z,25.23
2019-03-18T12:17:54.749Z,31.90
2019-03-18T12:20:25.509Z,24.65
2019-03-18T12:22:52.853Z,28.60
2019-03-18T12:25:21.066Z,24.35
2019-03-18T12:27:50.441Z,25.05
2019-03-18T12:30:21.057Z,24.60
2019-03-18T12:32:49.266Z,27.75
2019-03-18T12:35:17.497Z,28.93
2019-03-18T12:37:45.739Z,26.33
2019-03-18T12:40:17.600Z,18.55
2019-03-18T12:42:45.889Z,23.05
2019-03-18T12:45:16.218Z,26.57
2019-03-18T12:47:44.431Z,22.73
2019-03-18T12:50:38.724Z,20.13
2019-03-18T12:52:50.978Z,21.82
2019-03-18T12:55:19.204Z,17.35
2019-03-18T12:57:47.430Z,20.52
2019-03-18T13:00:24.064Z,19.98
2019-03-18T13:02:52.300Z,26.82
2019-03-18T13:05:20.536Z,23.42
2019-03-18T13:07:48.755Z,18.17
2019-03-18T13:10:21.405Z,21.17
2019-03-18T13:12:49.028Z,29.02
2019-03-18T13:15:19.149Z,27.45
2019-03-18T13:17:47.394Z,24.55
2019-03-18T13:20:17.063Z,21.00
2019-03-18T13:22:45.298Z,22.27
2019-03-18T13:25:13.863Z,20.25
2019-03-18T13:27:42.079Z,20.05
2019-03-18T13:30:18.233Z,20.90
2019-03-18T13:32:46.454Z,21.90
2019-03-18T13:35:14.666Z,22.75
2019-03-18T13:37:42.900Z,30.43
2019-03-18T13:40:17.967Z,19.57
2019-03-18T13:42:46.207Z,28.50
2019-03-18T13:45:19.988Z,18.70
2019-03-18T13:47:48.220Z,20.37
2019-03-18T13:50:17.467Z,22.82
2019-03-18T13:52:45.683Z,19.45
2019-03-18T13:55:13.910Z,25.85
2019-03-18T13:57:42.170Z,27.33
2019-03-18T14:00:15.868Z,25.40
2019-03-18T14:02:44.077Z,22.50
2019-03-18T14:05:12.346Z,22.97
2019-03-18T14:07:40.546Z,23.90
2019-03-18T14:10:17.902Z,21.37
2019-03-18T14:12:46.119Z,20.15
2019-03-18T14:15:19.641Z,10.82
2019-03-18T14:17:47.858Z,10.18
2019-03-18T14:20:18.532Z,15.00
2019-03-18T14:22:46.765Z,18.92
2019-03-18T14:25:15.002Z,16.02
2019-03-18T14:27:43.238Z,20.62
2019-03-18T14:30:19.792Z,17.80
2019-03-18T14:32:47.997Z,19.62
2019-03-18T14:35:16.208Z,25.15
2019-03-18T14:37:44.432Z,18.62
2019-03-18T14:40:17.857Z,25.88
2019-03-18T14:42:46.077Z,23.65
2019-03-18T14:45:16.349Z,24.50
2019-03-18T14:47:44.584Z,27.03
2019-03-18T14:50:14.071Z,32.75
2019-03-18T14:52:42.333Z,29.27
2019-03-18T14:55:13.858Z,28.02
2019-03-18T14:57:42.061Z,27.37
2019-03-18T15:00:14.744Z,24.63
2019-03-18T15:02:43.290Z,21.15
2019-03-18T15:05:13.470Z,19.82
2019-03-18T15:07:41.687Z,26.45
2019-03-18T15:10:13.159Z,27.75
2019-03-18T15:12:41.435Z,25.40
2019-03-18T15:15:12.491Z,31.23
2019-03-18T15:17:40.827Z,19.98
2019-03-18T15:20:12.359Z,11.83
2019-03-18T15:22:40.767Z,16.80
2019-03-18T15:25:12.085Z,16.25
2019-03-18T15:27:40.328Z,20.30
2019-03-18T15:30:14.398Z,18.90
2019-03-18T15:32:42.606Z,23.02
2019-03-18T15:35:11.799Z,23.47
2019-03-18T15:37:40.017Z,29.07
2019-03-18T15:40:11.419Z,26.48
2019-03-18T15:42:39.658Z,22.25
2019-03-18T15:45:10.987Z,27.35
2019-03-18T15:47:39.209Z,28.73
2019-03-18T15:50:12.789Z,32.00
2019-03-18T15:52:40.340Z,25.65
2019-03-18T15:55:08.938Z,33.25
2019-03-18T15:57:37.162Z,25.27
2019-03-18T16:00:08.873Z,21.20
2019-03-18T16:02:37.097Z,30.62
2019-03-18T16:05:06.441Z,26.85
2019-03-18T16:07:34.792Z,26.95
2019-03-18T16:10:03.292Z,29.03
2019-03-18T16:12:31.528Z,25.45
2019-03-18T16:14:59.737Z,37.58
2019-03-18T16:17:27.958Z,29.00
2019-03-18T16:19:56.434Z,34.30
2019-03-18T16:22:24.643Z,26.70
2019-03-18T16:24:52.884Z,34.88
2019-03-18T16:27:21.101Z,40.63
2019-03-18T16:29:49.308Z,32.40
2019-03-18T16:32:17.544Z,31.73
2019-03-18T16:34:45.751Z,38.60
2019-03-18T16:37:14.008Z,29.90
2019-03-18T16:39:42.340Z,32.55
2019-03-18T16:42:10.804Z,41.28
2019-03-18T16:44:39.028Z,35.23
2019-03-18T16:47:07.252Z,34.53
2019-03-18T16:49:35.475Z,36.63
2019-03-18T16:52:03.683Z,34.35
2019-03-18T16:54:31.909Z,24.90
2019-03-18T16:57:00.133Z,34.50
2019-03-18T16:59:28.350Z,34.63
2019-03-18T17:01:56.676Z,24.33
2019-03-18T17:04:25.376Z,29.05
2019-03-18T17:06:53.595Z,27.27
2019-03-18T17:09:21.808Z,26.97
2019-03-18T17:11:50.022Z,27.30
2019-03-18T17:14:18.248Z,24.47
2019-03-18T17:16:46.484Z,26.95
2019-03-18T17:19:14.696Z,32.10
2019-03-18T17:21:42.915Z,29.65
2019-03-18T17:24:11.127Z,25.27
2019-03-18T17:26:39.381Z,22.82
2019-03-18T17:29:07.588Z,29.57
2019-03-18T17:31:35.801Z,22.35
2019-03-18T17:34:04.023Z,21.37
2019-03-18T17:36:32.248Z,26.68
2019-03-18T17:39:00.605Z,24.23
2019-03-18T17:41:28.828Z,26.63
2019-03-18T17:43:57.064Z,28.50
2019-03-18T17:46:25.437Z,27.75
2019-03-18T17:48:53.803Z,28.25
2019-03-18T17:51:22.189Z,35.27
2019-03-18T17:53:50.385Z,32.42
2019-03-18T17:56:29.727Z,24.60
2019-03-18T17:58:48.563Z,22.57
2019-03-18T18:01:17.614Z,23.47
2019-03-18T18:03:45.839Z,28.38
2019-03-18T18:06:14.095Z,22.67
2019-03-18T18:08:42.314Z,31.62
2019-03-18T18:11:10.523Z,28.20
2019-03-18T18:13:38.737Z,22.25
2019-03-18T18:16:06.955Z,22.90
2019-03-18T18:18:35.194Z,22.73
2019-03-18T18:21:03.402Z,28.57
2019-03-18T18:23:31.618Z,26.68
2019-03-18T18:25:59.847Z,35.03
2019-03-18T18:28:28.614Z,33.50
2019-03-18T18:30:57.321Z,25.90
2019-03-18T18:33:25.541Z,29.65
2019-03-18T18:35:53.798Z,29.65
2019-03-18T18:38:22.003Z,18.45
2019-03-18T18:40:50.221Z,19.05
2019-03-18T18:43:18.446Z,20.02
2019-03-18T18:45:46.659Z,14.78
2019-03-18T18:48:14.896Z,20.05
2019-03-18T18:50:43.103Z,26.48
2019-03-18T18:53:11.433Z,16.87
2019-03-18T18:55:39.823Z,14.50
2019-03-18T18:58:08.032Z,16.07
2019-03-18T19:00:36.263Z,14.15
2019-03-18T19:03:04.470Z,13.13
2019-03-18T19:05:32.686Z,16.67
2019-03-18T19:08:00.892Z,21.00
2019-03-18T19:10:29.104Z,24.15
2019-03-18T19:12:57.641Z,18.95
2019-03-18T19:15:28.454Z,22.48
2019-03-18T19:17:57.676Z,21.35
2019-03-18T19:20:25.920Z,17.10
2019-03-18T19:22:54.145Z,25.23
2019-03-18T19:25:22.358Z,27.02
2019-03-18T19:27:50.590Z,22.17
2019-03-18T19:30:23.492Z,16.45
2019-03-18T19:32:51.714Z,22.70
2019-03-18T19:35:19.946Z,20.90
2019-03-18T19:37:48.147Z,23.38
2019-03-18T19:40:19.651Z,22.48
2019-03-18T19:42:47.865Z,19.30
2019-03-18T19:45:16.080Z,21.50
2019-03-18T19:47:44.451Z,18.25
2019-03-18T19:50:29.849Z,23.47
2019-03-18T19:52:58.068Z,26.55
2019-03-18T19:55:26.282Z,19.12
2019-03-18T19:57:54.562Z,23.00
2019-03-18T20:00:23.612Z,25.57
2019-03-18T20:02:51.896Z,21.20
2019-03-18T20:05:20.116Z,26.80
2019-03-18T20:07:48.327Z,20.65
2019-03-18T20:10:17.889Z,20.23
2019-03-18T20:12:46.079Z,29.27
2019-03-18T20:15:15.451Z,15.90
2019-03-18T20:17:43.660Z,20.80
2019-03-18T20:20:20.048Z,25.05
2019-03-18T20:22:48.284Z,29.32
2019-03-18T20:25:16.502Z,29.50
2019-03-18T20:27:44.953Z,31.45
2019-03-18T20:30:21.181Z,21.23
2019-03-18T20:32:49.403Z,24.82
2019-03-18T20:35:21.252Z,24.57
2019-03-18T20:37:51.866Z,25.48
2019-03-18T20:40:19.414Z,26.03
2019-03-18T20:42:47.660Z,20.62
2019-03-18T20:45:17.755Z,27.60
2019-03-18T20:47:45.972Z,27.47
2019-03-18T20:50:21.796Z,24.10
2019-03-18T20:52:50.009Z,21.97
2019-03-18T20:55:18.228Z,22.95
2019-03-18T20:57:46.439Z,23.60
2019-03-18T21:00:19.418Z,22.10
2019-03-18T21:02:47.639Z,23.50
2019-03-18T21:05:15.871Z,24.70
2019-03-18T21:07:44.089Z,22.67
2019-03-18T21:10:21.592Z,23.98
2019-03-18T21:12:49.801Z,26.47
2019-03-18T21:15:18.608Z,28.12
2019-03-18T21:17:46.837Z,26.07
2019-03-18T21:20:26.355Z,18.32
2019-03-18T21:22:54.724Z,29.57
2019-03-18T21:25:22.943Z,32.65
2019-03-18T21:27:51.155Z,18.00
2019-03-18T21:30:20.318Z,27.02
2019-03-18T21:32:48.591Z,27.00
2019-03-18T21:35:16.822Z,26.25
2019-03-18T21:37:45.039Z,30.25
2019-03-18T21:40:17.716Z,32.35
2019-03-18T21:42:45.929Z,28.55
2019-03-18T21:45:17.180Z,24.85
2019-03-18T21:47:45.425Z,27.35
2019-03-18T21:50:15.490Z,27.30
2019-03-18T21:52:43.721Z,31.63
2019-03-18T21:55:12.086Z,24.43
2019-03-18T21:57:40.306Z,24.35
2019-03-18T22:00:24.105Z,25.43
2019-03-18T22:02:52.323Z,21.20
2019-03-18T22:05:20.543Z,28.92
2019-03-18T22:07:48.768Z,23.42
2019-03-18T22:10:18.111Z,23.45
2019-03-18T22:12:46.901Z,18.67
2019-03-18T22:15:15.878Z,26.90
2019-03-18T22:17:44.095Z,21.30
2019-03-18T22:20:14.141Z,33.95
2019-03-18T22:22:42.352Z,26.00
2019-03-18T22:25:12.123Z,27.10
2019-03-18T22:27:40.339Z,25.50
2019-03-18T22:30:11.348Z,23.90
2019-03-18T22:32:39.680Z,21.70
2019-03-18T22:35:08.629Z,20.25
2019-03-18T22:37:36.835Z,29.15
2019-03-18T22:40:12.781Z,24.67
2019-03-18T22:42:41.001Z,23.32
2019-03-18T22:45:17.266Z,22.87
2019-03-18T22:47:45.559Z,32.03
2019-03-18T22:50:14.623Z,29.02
2019-03-18T22:52:42.832Z,28.45
2019-03-18T22:55:12.020Z,28.62
2019-03-18T22:57:40.231Z,24.05
2019-03-18T23:00:28.747Z,24.87
2019-03-18T23:02:56.960Z,28.17
2019-03-18T23:05:25.184Z,25.37
2019-03-18T23:07:53.398Z,24.13
2019-03-18T23:10:21.611Z,30.60
2019-03-18T23:12:49.831Z,33.60
2019-03-18T23:15:18.041Z,28.90
2019-03-18T23:17:46.258Z,24.65
2019-03-18T23:20:14.471Z,31.63
2019-03-18T23:22:42.684Z,25.65
2019-03-18T23:25:10.917Z,37.20
2019-03-18T23:27:39.126Z,28.87
2019-03-18T23:30:13.758Z,23.87
2019-03-18T23:32:41.981Z,23.25
2019-03-18T23:35:10.246Z,33.55
2019-03-18T23:37:38.412Z,21.13
2019-03-18T23:40:12.285Z,23.73
2019-03-18T23:42:40.496Z,26.68
2019-03-18T23:45:09.570Z,26.25
2019-03-18T23:47:37.779Z,28.50
2019-03-18T23:50:11.834Z,29.23
2019-03-18T23:52:40.066Z,22.15
2019-03-18T23:55:18.274Z,30.80
